sensor_id;sensor_type;location;lat;lon;timestamp;P1;durP1;ratioP1;P2;durP2;ratioP2
70920;SDS011;58572;48.110;19.838;2023-05-07T00:00:34;6.07;;;4.63;;
70920;SDS011;58572;48.110;19.838;2023-05-07T00:03:03;5.63;;;3.78;;
70920;SDS011;58572;48.110;19.838;2023-05-07T00:05:30;5.88;;;4.07;;
70920;SDS011;58572;48.110;19.838;2023-05-07T00:07:57;5.35;;;4.13;;
70920;SDS011;58572;48.110;19.838;2023-05-07T00:10:26;5.78;;;4.30;;
70920;SDS011;58572;48.110;19.838;2023-05-07T00:12:53;6.45;;;4.50;;
70920;SDS011;58572;48.110;19.838;2023-05-07T00:15:20;6.50;;;4.40;;
70920;SDS011;58572;48.110;19.838;2023-05-07T00:20:16;6.22;;;3.90;;
70920;SDS011;58572;48.110;19.838;2023-05-07T00:22:43;6.85;;;4.20;;
70920;SDS011;58572;48.110;19.838;2023-05-07T00:25:10;5.38;;;4.10;;
70920;SDS011;58572;48.110;19.838;2023-05-07T00:27:37;8.55;;;3.92;;
70920;SDS011;58572;48.110;19.838;2023-05-07T00:30:05;5.07;;;3.88;;
70920;SDS011;58572;48.110;19.838;2023-05-07T00:32:33;5.38;;;3.78;;
70920;SDS011;58572;48.110;19.838;2023-05-07T00:35:01;4.30;;;3.13;;
70920;SDS011;58572;48.110;19.838;2023-05-07T00:37:30;4.80;;;3.20;;
70920;SDS011;58572;48.110;19.838;2023-05-07T00:39:57;4.05;;;3.00;;
70920;SDS011;58572;48.110;19.838;2023-05-07T00:42:29;8.13;;;3.22;;
70920;SDS011;58572;48.110;19.838;2023-05-07T00:44:57;4.57;;;3.30;;
70920;SDS011;58572;48.110;19.838;2023-05-07T00:47:25;5.18;;;3.25;;
70920;SDS011;58572;48.110;19.838;2023-05-07T00:49:52;5.53;;;3.45;;
70920;SDS011;58572;48.110;19.838;2023-05-07T00:52:19;5.65;;;3.53;;
70920;SDS011;58572;48.110;19.838;2023-05-07T00:54:49;7.88;;;3.60;;
70920;SDS011;58572;48.110;19.838;2023-05-07T00:57:16;5.70;;;3.75;;
70920;SDS011;58572;48.110;19.838;2023-05-07T00:59:44;6.05;;;3.67;;
70920;SDS011;58572;48.110;19.838;2023-05-07T01:02:11;5.57;;;3.40;;
70920;SDS011;58572;48.110;19.838;2023-05-07T01:04:39;4.70;;;3.00;;
70920;SDS011;58572;48.110;19.838;2023-05-07T01:07:06;4.47;;;3.05;;
70920;SDS011;58572;48.110;19.838;2023-05-07T01:09:34;4.50;;;3.38;;
70920;SDS011;58572;48.110;19.838;2023-05-07T01:12:04;6.80;;;3.38;;
70920;SDS011;58572;48.110;19.838;2023-05-07T01:14:33;5.32;;;3.00;;
70920;SDS011;58572;48.110;19.838;2023-05-07T01:17:01;4.50;;;3.25;;
70920;SDS011;58572;48.110;19.838;2023-05-07T01:19:29;4.40;;;3.05;;
70920;SDS011;58572;48.110;19.838;2023-05-07T01:21:59;5.03;;;2.80;;
70920;SDS011;58572;48.110;19.838;2023-05-07T01:24:31;4.50;;;3.05;;
70920;SDS011;58572;48.110;19.838;2023-05-07T01:26:59;3.97;;;2.42;;
70920;SDS011;58572;48.110;19.838;2023-05-07T01:29:27;5.10;;;3.08;;
70920;SDS011;58572;48.110;19.838;2023-05-07T01:31:55;6.55;;;2.80;;
70920;SDS011;58572;48.110;19.838;2023-05-07T01:34:25;3.88;;;2.92;;
70920;SDS011;58572;48.110;19.838;2023-05-07T01:36:54;3.90;;;2.75;;
70920;SDS011;58572;48.110;19.838;2023-05-07T01:39:23;6.55;;;3.28;;
70920;SDS011;58572;48.110;19.838;2023-05-07T01:41:54;6.25;;;3.55;;
70920;SDS011;58572;48.110;19.838;2023-05-07T01:44:23;5.72;;;3.60;;
70920;SDS011;58572;48.110;19.838;2023-05-07T01:46:50;4.78;;;2.97;;
70920;SDS011;58572;48.110;19.838;2023-05-07T01:49:19;6.57;;;3.17;;
70920;SDS011;58572;48.110;19.838;2023-05-07T01:51:46;5.07;;;2.85;;
70920;SDS011;58572;48.110;19.838;2023-05-07T01:54:14;5.18;;;3.10;;
70920;SDS011;58572;48.110;19.838;2023-05-07T01:56:41;4.22;;;2.47;;
70920;SDS011;58572;48.110;19.838;2023-05-07T01:59:10;5.45;;;2.80;;
70920;SDS011;58572;48.110;19.838;2023-05-07T02:01:38;4.07;;;3.15;;
70920;SDS011;58572;48.110;19.838;2023-05-07T02:04:05;5.43;;;2.80;;
70920;SDS011;58572;48.110;19.838;2023-05-07T02:06:33;4.43;;;3.20;;
70920;SDS011;58572;48.110;19.838;2023-05-07T02:09:00;5.60;;;3.03;;
70920;SDS011;58572;48.110;19.838;2023-05-07T02:11:27;5.05;;;3.28;;
70920;SDS011;58572;48.110;19.838;2023-05-07T02:13:54;4.97;;;3.58;;
70920;SDS011;58572;48.110;19.838;2023-05-07T02:16:23;4.57;;;3.13;;
70920;SDS011;58572;48.110;19.838;2023-05-07T02:18:50;5.20;;;3.78;;
70920;SDS011;58572;48.110;19.838;2023-05-07T02:21:17;5.00;;;3.67;;
70920;SDS011;58572;48.110;19.838;2023-05-07T02:26:11;5.57;;;3.63;;
70920;SDS011;58572;48.110;19.838;2023-05-07T02:28:39;6.20;;;4.50;;
70920;SDS011;58572;48.110;19.838;2023-05-07T02:31:06;4.50;;;3.22;;
70920;SDS011;58572;48.110;19.838;2023-05-07T02:33:35;5.05;;;3.72;;
70920;SDS011;58572;48.110;19.838;2023-05-07T02:36:05;5.93;;;3.42;;
70920;SDS011;58572;48.110;19.838;2023-05-07T02:38:33;4.47;;;3.22;;
70920;SDS011;58572;48.110;19.838;2023-05-07T02:43:27;6.43;;;3.30;;
70920;SDS011;58572;48.110;19.838;2023-05-07T02:46:01;5.28;;;3.45;;
70920;SDS011;58572;48.110;19.838;2023-05-07T02:48:32;5.68;;;4.00;;
70920;SDS011;58572;48.110;19.838;2023-05-07T02:51:04;6.43;;;3.88;;
70920;SDS011;58572;48.110;19.838;2023-05-07T02:53:32;10.27;;;3.60;;
70920;SDS011;58572;48.110;19.838;2023-05-07T02:56:00;4.93;;;3.63;;
70920;SDS011;58572;48.110;19.838;2023-05-07T02:58:27;5.95;;;3.55;;
70920;SDS011;58572;48.110;19.838;2023-05-07T03:00:54;5.10;;;3.33;;
70920;SDS011;58572;48.110;19.838;2023-05-07T03:03:22;6.10;;;4.20;;
70920;SDS011;58572;48.110;19.838;2023-05-07T03:05:51;5.78;;;3.55;;
70920;SDS011;58572;48.110;19.838;2023-05-07T03:08:18;7.25;;;4.18;;
70920;SDS011;58572;48.110;19.838;2023-05-07T03:10:46;5.15;;;3.67;;
70920;SDS011;58572;48.110;19.838;2023-05-07T03:13:13;5.68;;;3.83;;
70920;SDS011;58572;48.110;19.838;2023-05-07T03:15:41;6.38;;;3.90;;
70920;SDS011;58572;48.110;19.838;2023-05-07T03:18:08;6.72;;;4.10;;
70920;SDS011;58572;48.110;19.838;2023-05-07T03:23:04;4.85;;;3.47;;
70920;SDS011;58572;48.110;19.838;2023-05-07T03:25:31;5.25;;;4.05;;
70920;SDS011;58572;48.110;19.838;2023-05-07T03:30:25;5.10;;;3.50;;
70920;SDS011;58572;48.110;19.838;2023-05-07T03:32:53;5.25;;;3.92;;
70920;SDS011;58572;48.110;19.838;2023-05-07T03:35:20;4.93;;;3.80;;
70920;SDS011;58572;48.110;19.838;2023-05-07T03:37:47;6.60;;;3.95;;
70920;SDS011;58572;48.110;19.838;2023-05-07T03:40:16;5.68;;;4.20;;
70920;SDS011;58572;48.110;19.838;2023-05-07T03:42:43;6.15;;;4.13;;
70920;SDS011;58572;48.110;19.838;2023-05-07T03:45:10;5.50;;;3.10;;
70920;SDS011;58572;48.110;19.838;2023-05-07T03:47:38;5.43;;;3.67;;
70920;SDS011;58572;48.110;19.838;2023-05-07T03:50:05;7.22;;;4.15;;
70920;SDS011;58572;48.110;19.838;2023-05-07T03:55:00;6.05;;;4.03;;
70920;SDS011;58572;48.110;19.838;2023-05-07T03:57:29;5.30;;;3.85;;
70920;SDS011;58572;48.110;19.838;2023-05-07T03:59:56;4.97;;;3.63;;
70920;SDS011;58572;48.110;19.838;2023-05-07T04:02:23;5.18;;;3.65;;
70920;SDS011;58572;48.110;19.838;2023-05-07T04:04:50;6.35;;;4.00;;
70920;SDS011;58572;48.110;19.838;2023-05-07T04:07:18;5.72;;;3.95;;
70920;SDS011;58572;48.110;19.838;2023-05-07T04:09:45;5.18;;;3.78;;
70920;SDS011;58572;48.110;19.838;2023-05-07T04:12:13;5.85;;;4.00;;
70920;SDS011;58572;48.110;19.838;2023-05-07T04:14:41;6.13;;;4.38;;
70920;SDS011;58572;48.110;19.838;2023-05-07T04:17:08;6.45;;;4.05;;
70920;SDS011;58572;48.110;19.838;2023-05-07T04:22:03;4.75;;;3.47;;
70920;SDS011;58572;48.110;19.838;2023-05-07T04:24:31;6.07;;;3.85;;
70920;SDS011;58572;48.110;19.838;2023-05-07T04:26:59;5.25;;;3.63;;
70920;SDS011;58572;48.110;19.838;2023-05-07T04:31:55;4.93;;;3.15;;
70920;SDS011;58572;48.110;19.838;2023-05-07T04:34:23;5.20;;;3.47;;
70920;SDS011;58572;48.110;19.838;2023-05-07T04:36:51;5.00;;;3.55;;
70920;SDS011;58572;48.110;19.838;2023-05-07T04:39:18;5.57;;;4.25;;
70920;SDS011;58572;48.110;19.838;2023-05-07T04:41:45;4.53;;;3.72;;
70920;SDS011;58572;48.110;19.838;2023-05-07T04:44:12;6.53;;;4.70;;
70920;SDS011;58572;48.110;19.838;2023-05-07T04:46:39;8.50;;;4.75;;
70920;SDS011;58572;48.110;19.838;2023-05-07T04:49:08;7.70;;;4.68;;
70920;SDS011;58572;48.110;19.838;2023-05-07T04:51:36;6.03;;;4.22;;
70920;SDS011;58572;48.110;19.838;2023-05-07T04:54:04;7.72;;;4.90;;
70920;SDS011;58572;48.110;19.838;2023-05-07T04:56:31;8.93;;;5.25;;
70920;SDS011;58572;48.110;19.838;2023-05-07T04:58:58;9.40;;;5.45;;
70920;SDS011;58572;48.110;19.838;2023-05-07T05:01:25;7.97;;;6.07;;
70920;SDS011;58572;48.110;19.838;2023-05-07T05:03:53;9.43;;;6.25;;
70920;SDS011;58572;48.110;19.838;2023-05-07T05:06:21;8.50;;;5.50;;
70920;SDS011;58572;48.110;19.838;2023-05-07T05:08:48;14.82;;;7.30;;
70920;SDS011;58572;48.110;19.838;2023-05-07T05:11:16;14.32;;;8.65;;
70920;SDS011;58572;48.110;19.838;2023-05-07T05:13:43;11.15;;;7.78;;
70920;SDS011;58572;48.110;19.838;2023-05-07T05:16:10;10.75;;;6.75;;
70920;SDS011;58572;48.110;19.838;2023-05-07T05:18:37;11.85;;;8.70;;
70920;SDS011;58572;48.110;19.838;2023-05-07T05:21:04;9.75;;;6.45;;
70920;SDS011;58572;48.110;19.838;2023-05-07T05:23:33;13.05;;;7.00;;
70920;SDS011;58572;48.110;19.838;2023-05-07T05:26:00;9.80;;;7.28;;
70920;SDS011;58572;48.110;19.838;2023-05-07T05:28:28;12.38;;;7.88;;
70920;SDS011;58572;48.110;19.838;2023-05-07T05:30:55;13.63;;;8.23;;
70920;SDS011;58572;48.110;19.838;2023-05-07T05:33:22;10.85;;;8.50;;
70920;SDS011;58572;48.110;19.838;2023-05-07T05:35:49;12.15;;;8.35;;
70920;SDS011;58572;48.110;19.838;2023-05-07T05:38:17;12.18;;;7.80;;
70920;SDS011;58572;48.110;19.838;2023-05-07T05:40:45;10.98;;;7.40;;
70920;SDS011;58572;48.110;19.838;2023-05-07T05:43:13;10.43;;;7.40;;
70920;SDS011;58572;48.110;19.838;2023-05-07T05:45:40;10.30;;;7.95;;
70920;SDS011;58572;48.110;19.838;2023-05-07T05:48:08;11.20;;;7.35;;
70920;SDS011;58572;48.110;19.838;2023-05-07T05:50:35;13.95;;;9.60;;
70920;SDS011;58572;48.110;19.838;2023-05-07T05:53:02;9.73;;;7.15;;
70920;SDS011;58572;48.110;19.838;2023-05-07T05:55:29;9.43;;;6.63;;
70920;SDS011;58572;48.110;19.838;2023-05-07T05:57:59;10.02;;;6.35;;
70920;SDS011;58572;48.110;19.838;2023-05-07T06:00:28;9.60;;;6.65;;
70920;SDS011;58572;48.110;19.838;2023-05-07T06:02:56;11.82;;;7.18;;
70920;SDS011;58572;48.110;19.838;2023-05-07T06:05:25;10.80;;;6.30;;
70920;SDS011;58572;48.110;19.838;2023-05-07T06:07:52;12.82;;;6.78;;
70920;SDS011;58572;48.110;19.838;2023-05-07T06:10:20;9.20;;;6.60;;
70920;SDS011;58572;48.110;19.838;2023-05-07T06:12:47;9.82;;;6.85;;
70920;SDS011;58572;48.110;19.838;2023-05-07T06:15:18;10.05;;;7.68;;
70920;SDS011;58572;48.110;19.838;2023-05-07T06:17:46;9.10;;;7.03;;
70920;SDS011;58572;48.110;19.838;2023-05-07T06:20:14;10.73;;;6.85;;
70920;SDS011;58572;48.110;19.838;2023-05-07T06:25:10;8.35;;;6.53;;
70920;SDS011;58572;48.110;19.838;2023-05-07T06:27:38;9.63;;;5.97;;
70920;SDS011;58572;48.110;19.838;2023-05-07T06:30:06;9.63;;;7.63;;
70920;SDS011;58572;48.110;19.838;2023-05-07T06:32:36;10.20;;;6.22;;
70920;SDS011;58572;48.110;19.838;2023-05-07T06:35:04;63.55;;;35.35;;
70920;SDS011;58572;48.110;19.838;2023-05-07T06:37:32;16.52;;;11.57;;
70920;SDS011;58572;48.110;19.838;2023-05-07T06:39:59;11.43;;;7.68;;
70920;SDS011;58572;48.110;19.838;2023-05-07T06:42:27;10.50;;;7.22;;
70920;SDS011;58572;48.110;19.838;2023-05-07T06:44:54;9.07;;;6.57;;
70920;SDS011;58572;48.110;19.838;2023-05-07T06:49:52;10.07;;;5.45;;
70920;SDS011;58572;48.110;19.838;2023-05-07T06:52:19;7.05;;;4.55;;
70920;SDS011;58572;48.110;19.838;2023-05-07T06:54:46;8.40;;;5.13;;
70920;SDS011;58572;48.110;19.838;2023-05-07T06:57:15;7.07;;;4.57;;
70920;SDS011;58572;48.110;19.838;2023-05-07T06:59:42;7.97;;;5.07;;
70920;SDS011;58572;48.110;19.838;2023-05-07T07:04:37;11.07;;;4.78;;
70920;SDS011;58572;48.110;19.838;2023-05-07T07:07:05;6.97;;;4.00;;
70920;SDS011;58572;48.110;19.838;2023-05-07T07:09:32;6.30;;;4.90;;
70920;SDS011;58572;48.110;19.838;2023-05-07T07:12:00;6.57;;;4.50;;
70920;SDS011;58572;48.110;19.838;2023-05-07T07:14:27;5.47;;;4.38;;
70920;SDS011;58572;48.110;19.838;2023-05-07T07:16:54;5.70;;;3.72;;
70920;SDS011;58572;48.110;19.838;2023-05-07T07:19:21;5.57;;;3.88;;
70920;SDS011;58572;48.110;19.838;2023-05-07T07:21:49;5.60;;;4.57;;
70920;SDS011;58572;48.110;19.838;2023-05-07T07:24:17;7.60;;;5.03;;
70920;SDS011;58572;48.110;19.838;2023-05-07T07:26:46;7.10;;;3.50;;
70920;SDS011;58572;48.110;19.838;2023-05-07T07:29:13;6.45;;;3.60;;
70920;SDS011;58572;48.110;19.838;2023-05-07T07:31:40;3.85;;;2.53;;
70920;SDS011;58572;48.110;19.838;2023-05-07T07:34:10;6.78;;;2.90;;
70920;SDS011;58572;48.110;19.838;2023-05-07T07:36:37;6.18;;;3.70;;
70920;SDS011;58572;48.110;19.838;2023-05-07T07:39:04;5.20;;;3.10;;
70920;SDS011;58572;48.110;19.838;2023-05-07T07:41:33;3.60;;;2.40;;
70920;SDS011;58572;48.110;19.838;2023-05-07T07:44:00;4.45;;;2.45;;
70920;SDS011;58572;48.110;19.838;2023-05-07T07:46:32;5.75;;;2.75;;
70920;SDS011;58572;48.110;19.838;2023-05-07T07:48:59;4.82;;;2.50;;
70920;SDS011;58572;48.110;19.838;2023-05-07T07:51:27;4.53;;;2.28;;
70920;SDS011;58572;48.110;19.838;2023-05-07T07:53:54;4.72;;;2.33;;
70920;SDS011;58572;48.110;19.838;2023-05-07T07:56:22;3.75;;;2.67;;
70920;SDS011;58572;48.110;19.838;2023-05-07T07:58:51;4.28;;;2.80;;
70920;SDS011;58572;48.110;19.838;2023-05-07T08:01:18;5.90;;;2.50;;
70920;SDS011;58572;48.110;19.838;2023-05-07T08:03:46;4.28;;;2.38;;
70920;SDS011;58572;48.110;19.838;2023-05-07T08:06:13;3.33;;;2.03;;
70920;SDS011;58572;48.110;19.838;2023-05-07T08:11:07;6.60;;;2.75;;
70920;SDS011;58572;48.110;19.838;2023-05-07T08:13:34;10.77;;;3.15;;
70920;SDS011;58572;48.110;19.838;2023-05-07T08:16:04;3.97;;;2.40;;
70920;SDS011;58572;48.110;19.838;2023-05-07T08:18:32;6.47;;;2.28;;
70920;SDS011;58572;48.110;19.838;2023-05-07T08:20:59;6.93;;;2.25;;
70920;SDS011;58572;48.110;19.838;2023-05-07T08:23:27;3.97;;;1.98;;
70920;SDS011;58572;48.110;19.838;2023-05-07T08:25:54;55.78;;;4.43;;
70920;SDS011;58572;48.110;19.838;2023-05-07T08:28:21;3.10;;;1.92;;
70920;SDS011;58572;48.110;19.838;2023-05-07T08:30:50;3.95;;;1.85;;
70920;SDS011;58572;48.110;19.838;2023-05-07T08:33:18;5.53;;;2.60;;
70920;SDS011;58572;48.110;19.838;2023-05-07T08:35:46;4.25;;;1.80;;
70920;SDS011;58572;48.110;19.838;2023-05-07T08:38:13;3.83;;;2.13;;
70920;SDS011;58572;48.110;19.838;2023-05-07T08:40:40;6.32;;;2.15;;
70920;SDS011;58572;48.110;19.838;2023-05-07T08:45:35;3.60;;;1.90;;
70920;SDS011;58572;48.110;19.838;2023-05-07T08:48:05;4.43;;;2.10;;
70920;SDS011;58572;48.110;19.838;2023-05-07T08:50:37;6.72;;;2.63;;
70920;SDS011;58572;48.110;19.838;2023-05-07T08:53:04;4.03;;;2.38;;
70920;SDS011;58572;48.110;19.838;2023-05-07T08:55:32;3.95;;;2.28;;
70920;SDS011;58572;48.110;19.838;2023-05-07T08:57:59;7.07;;;3.13;;
70920;SDS011;58572;48.110;19.838;2023-05-07T09:00:27;6.53;;;2.75;;
70920;SDS011;58572;48.110;19.838;2023-05-07T09:02:54;6.13;;;2.20;;
70920;SDS011;58572;48.110;19.838;2023-05-07T09:05:22;6.38;;;2.13;;
70920;SDS011;58572;48.110;19.838;2023-05-07T09:10:18;5.88;;;2.08;;
70920;SDS011;58572;48.110;19.838;2023-05-07T09:12:46;4.55;;;1.95;;
70920;SDS011;58572;48.110;19.838;2023-05-07T09:15:14;3.50;;;1.45;;
70920;SDS011;58572;48.110;19.838;2023-05-07T09:17:41;3.15;;;1.73;;
70920;SDS011;58572;48.110;19.838;2023-05-07T09:20:10;3.80;;;1.70;;
70920;SDS011;58572;48.110;19.838;2023-05-07T09:22:37;3.65;;;1.75;;
70920;SDS011;58572;48.110;19.838;2023-05-07T09:25:07;2.92;;;1.73;;
70920;SDS011;58572;48.110;19.838;2023-05-07T09:27:35;2.95;;;1.77;;
70920;SDS011;58572;48.110;19.838;2023-05-07T09:30:03;3.25;;;1.75;;
70920;SDS011;58572;48.110;19.838;2023-05-07T09:32:33;7.15;;;1.75;;
70920;SDS011;58572;48.110;19.838;2023-05-07T09:35:03;4.82;;;1.77;;
70920;SDS011;58572;48.110;19.838;2023-05-07T09:37:31;4.80;;;1.70;;
70920;SDS011;58572;48.110;19.838;2023-05-07T09:39:58;3.20;;;1.92;;
70920;SDS011;58572;48.110;19.838;2023-05-07T09:44:54;3.85;;;1.65;;
70920;SDS011;58572;48.110;19.838;2023-05-07T09:47:23;3.72;;;2.00;;
70920;SDS011;58572;48.110;19.838;2023-05-07T09:49:53;3.13;;;1.85;;
70920;SDS011;58572;48.110;19.838;2023-05-07T09:52:22;4.30;;;1.95;;
70920;SDS011;58572;48.110;19.838;2023-05-07T09:54:53;3.88;;;1.80;;
70920;SDS011;58572;48.110;19.838;2023-05-07T09:57:24;3.90;;;1.38;;
70920;SDS011;58572;48.110;19.838;2023-05-07T09:59:55;2.72;;;1.50;;
70920;SDS011;58572;48.110;19.838;2023-05-07T10:02:25;4.40;;;1.40;;
70920;SDS011;58572;48.110;19.838;2023-05-07T10:04:56;2.47;;;1.20;;
70920;SDS011;58572;48.110;19.838;2023-05-07T10:07:25;4.45;;;1.48;;
70920;SDS011;58572;48.110;19.838;2023-05-07T10:09:53;5.40;;;2.20;;
70920;SDS011;58572;48.110;19.838;2023-05-07T10:12:24;3.10;;;1.60;;
70920;SDS011;58572;48.110;19.838;2023-05-07T10:14:53;3.67;;;1.55;;
70920;SDS011;58572;48.110;19.838;2023-05-07T10:17:22;2.97;;;1.42;;
70920;SDS011;58572;48.110;19.838;2023-05-07T10:19:50;7.25;;;1.77;;
70920;SDS011;58572;48.110;19.838;2023-05-07T10:22:19;3.65;;;1.50;;
70920;SDS011;58572;48.110;19.838;2023-05-07T10:24:48;4.22;;;2.10;;
70920;SDS011;58572;48.110;19.838;2023-05-07T10:27:19;3.75;;;1.50;;
70920;SDS011;58572;48.110;19.838;2023-05-07T10:29:50;3.83;;;2.00;;
70920;SDS011;58572;48.110;19.838;2023-05-07T10:32:30;5.30;;;1.92;;
70920;SDS011;58572;48.110;19.838;2023-05-07T10:35:04;4.55;;;1.75;;
70920;SDS011;58572;48.110;19.838;2023-05-07T10:37:37;4.28;;;1.67;;
70920;SDS011;58572;48.110;19.838;2023-05-07T10:40:05;4.75;;;1.48;;
70920;SDS011;58572;48.110;19.838;2023-05-07T10:42:33;5.13;;;1.48;;
70920;SDS011;58572;48.110;19.838;2023-05-07T10:45:12;3.80;;;1.40;;
70920;SDS011;58572;48.110;19.838;2023-05-07T10:50:45;7.65;;;1.60;;
70920;SDS011;58572;48.110;19.838;2023-05-07T10:53:24;5.55;;;1.45;;
70920;SDS011;58572;48.110;19.838;2023-05-07T10:58:54;4.63;;;1.40;;
70920;SDS011;58572;48.110;19.838;2023-05-07T11:04:19;3.75;;;1.20;;
70920;SDS011;58572;48.110;19.838;2023-05-07T11:10:03;4.50;;;1.60;;
70920;SDS011;58572;48.110;19.838;2023-05-07T11:15:36;2.75;;;1.13;;
70920;SDS011;58572;48.110;19.838;2023-05-07T11:18:06;7.22;;;1.23;;
70920;SDS011;58572;48.110;19.838;2023-05-07T11:26:42;2.33;;;1.00;;
70920;SDS011;58572;48.110;19.838;2023-05-07T11:29:14;2.53;;;1.10;;
70920;SDS011;58572;48.110;19.838;2023-05-07T11:31:43;2.53;;;1.10;;
70920;SDS011;58572;48.110;19.838;2023-05-07T11:34:12;3.42;;;1.20;;
70920;SDS011;58572;48.110;19.838;2023-05-07T11:36:41;3.63;;;1.00;;
70920;SDS011;58572;48.110;19.838;2023-05-07T11:41:58;3.80;;;1.10;;
70920;SDS011;58572;48.110;19.838;2023-05-07T11:44:39;3.53;;;1.23;;
70920;SDS011;58572;48.110;19.838;2023-05-07T11:47:08;2.40;;;1.25;;
70920;SDS011;58572;48.110;19.838;2023-05-07T11:49:38;3.40;;;1.30;;
70920;SDS011;58572;48.110;19.838;2023-05-07T11:52:05;5.00;;;1.20;;
70920;SDS011;58572;48.110;19.838;2023-05-07T11:54:35;2.60;;;1.40;;
70920;SDS011;58572;48.110;19.838;2023-05-07T11:57:03;3.78;;;1.40;;
70920;SDS011;58572;48.110;19.838;2023-05-07T11:59:37;2.75;;;1.20;;
70920;SDS011;58572;48.110;19.838;2023-05-07T12:02:09;3.35;;;1.60;;
70920;SDS011;58572;48.110;19.838;2023-05-07T12:04:39;4.38;;;1.40;;
70920;SDS011;58572;48.110;19.838;2023-05-07T12:07:10;3.17;;;1.45;;
70920;SDS011;58572;48.110;19.838;2023-05-07T12:09:38;4.50;;;1.52;;
70920;SDS011;58572;48.110;19.838;2023-05-07T12:12:06;2.85;;;1.40;;
70920;SDS011;58572;48.110;19.838;2023-05-07T12:14:37;2.63;;;1.38;;
70920;SDS011;58572;48.110;19.838;2023-05-07T12:17:05;4.95;;;1.85;;
70920;SDS011;58572;48.110;19.838;2023-05-07T12:19:33;4.03;;;1.50;;
70920;SDS011;58572;48.110;19.838;2023-05-07T12:22:03;3.15;;;1.65;;
70920;SDS011;58572;48.110;19.838;2023-05-07T12:24:41;4.63;;;1.75;;
70920;SDS011;58572;48.110;19.838;2023-05-07T12:27:13;3.88;;;1.67;;
70920;SDS011;58572;48.110;19.838;2023-05-07T12:29:43;4.63;;;1.83;;
70920;SDS011;58572;48.110;19.838;2023-05-07T12:32:12;2.40;;;1.48;;
70920;SDS011;58572;48.110;19.838;2023-05-07T12:34:41;2.75;;;1.65;;
70920;SDS011;58572;48.110;19.838;2023-05-07T12:37:10;2.33;;;1.33;;
70920;SDS011;58572;48.110;19.838;2023-05-07T12:39:38;3.00;;;1.55;;
70920;SDS011;58572;48.110;19.838;2023-05-07T12:42:10;3.47;;;1.48;;
70920;SDS011;58572;48.110;19.838;2023-05-07T12:44:43;3.75;;;1.58;;
70920;SDS011;58572;48.110;19.838;2023-05-07T12:47:12;4.25;;;1.63;;
70920;SDS011;58572;48.110;19.838;2023-05-07T12:49:41;3.03;;;1.50;;
70920;SDS011;58572;48.110;19.838;2023-05-07T12:52:22;3.35;;;1.70;;
70920;SDS011;58572;48.110;19.838;2023-05-07T12:54:50;3.70;;;1.50;;
70920;SDS011;58572;48.110;19.838;2023-05-07T12:57:19;6.07;;;1.60;;
70920;SDS011;58572;48.110;19.838;2023-05-07T12:59:47;4.50;;;1.52;;
70920;SDS011;58572;48.110;19.838;2023-05-07T13:02:14;11.73;;;1.58;;
70920;SDS011;58572;48.110;19.838;2023-05-07T13:04:41;3.03;;;1.30;;
70920;SDS011;58572;48.110;19.838;2023-05-07T13:07:08;5.93;;;1.60;;
70920;SDS011;58572;48.110;19.838;2023-05-07T13:09:37;4.00;;;1.40;;
70920;SDS011;58572;48.110;19.838;2023-05-07T13:12:05;2.90;;;1.50;;
70920;SDS011;58572;48.110;19.838;2023-05-07T13:14:32;2.97;;;1.27;;
70920;SDS011;58572;48.110;19.838;2023-05-07T13:16:59;5.30;;;1.38;;
70920;SDS011;58572;48.110;19.838;2023-05-07T13:19:27;5.25;;;1.40;;
70920;SDS011;58572;48.110;19.838;2023-05-07T13:21:54;5.13;;;1.30;;
70920;SDS011;58572;48.110;19.838;2023-05-07T13:24:22;7.88;;;1.45;;
70920;SDS011;58572;48.110;19.838;2023-05-07T13:26:51;4.45;;;1.40;;
70920;SDS011;58572;48.110;19.838;2023-05-07T13:29:18;2.72;;;1.45;;
70920;SDS011;58572;48.110;19.838;2023-05-07T13:31:46;4.15;;;1.58;;
70920;SDS011;58572;48.110;19.838;2023-05-07T13:34:13;3.03;;;1.55;;
70920;SDS011;58572;48.110;19.838;2023-05-07T13:36:41;2.25;;;1.30;;
70920;SDS011;58572;48.110;19.838;2023-05-07T13:39:08;3.90;;;1.52;;
70920;SDS011;58572;48.110;19.838;2023-05-07T13:41:35;4.65;;;1.90;;
70920;SDS011;58572;48.110;19.838;2023-05-07T13:44:04;2.97;;;1.70;;
70920;SDS011;58572;48.110;19.838;2023-05-07T13:46:32;5.20;;;1.90;;
70920;SDS011;58572;48.110;19.838;2023-05-07T13:48:59;2.80;;;1.60;;
70920;SDS011;58572;48.110;19.838;2023-05-07T13:53:53;4.00;;;1.55;;
70920;SDS011;58572;48.110;19.838;2023-05-07T13:56:20;2.80;;;1.70;;
70920;SDS011;58572;48.110;19.838;2023-05-07T13:58:48;4.95;;;1.70;;
70920;SDS011;58572;48.110;19.838;2023-05-07T14:01:17;2.72;;;1.52;;
70920;SDS011;58572;48.110;19.838;2023-05-07T14:03:44;3.72;;;1.58;;
70920;SDS011;58572;48.110;19.838;2023-05-07T14:06:12;5.05;;;1.85;;
70920;SDS011;58572;48.110;19.838;2023-05-07T14:08:40;3.53;;;1.70;;
70920;SDS011;58572;48.110;19.838;2023-05-07T14:11:07;4.55;;;1.85;;
70920;SDS011;58572;48.110;19.838;2023-05-07T14:13:34;4.60;;;1.63;;
70920;SDS011;58572;48.110;19.838;2023-05-07T14:16:02;2.92;;;1.80;;
70920;SDS011;58572;48.110;19.838;2023-05-07T14:18:32;3.97;;;2.30;;
70920;SDS011;58572;48.110;19.838;2023-05-07T14:21:00;5.47;;;1.77;;
70920;SDS011;58572;48.110;19.838;2023-05-07T14:25:54;5.30;;;1.70;;
70920;SDS011;58572;48.110;19.838;2023-05-07T14:28:22;4.35;;;1.60;;
70920;SDS011;58572;48.110;19.838;2023-05-07T14:30:49;3.97;;;1.70;;
70920;SDS011;58572;48.110;19.838;2023-05-07T14:33:17;3.97;;;1.30;;
70920;SDS011;58572;48.110;19.838;2023-05-07T14:35:46;4.25;;;1.67;;
70920;SDS011;58572;48.110;19.838;2023-05-07T14:38:14;3.63;;;1.40;;
70920;SDS011;58572;48.110;19.838;2023-05-07T14:40:41;2.50;;;1.30;;
70920;SDS011;58572;48.110;19.838;2023-05-07T14:43:10;3.67;;;1.30;;
70920;SDS011;58572;48.110;19.838;2023-05-07T14:45:37;3.33;;;1.50;;
70920;SDS011;58572;48.110;19.838;2023-05-07T14:48:04;3.47;;;1.50;;
70920;SDS011;58572;48.110;19.838;2023-05-07T14:50:32;4.38;;;2.00;;
70920;SDS011;58572;48.110;19.838;2023-05-07T14:53:01;2.92;;;1.52;;
70920;SDS011;58572;48.110;19.838;2023-05-07T14:55:29;3.30;;;1.52;;
70920;SDS011;58572;48.110;19.838;2023-05-07T14:57:56;7.28;;;1.95;;
70920;SDS011;58572;48.110;19.838;2023-05-07T15:00:23;27.85;;;2.50;;
70920;SDS011;58572;48.110;19.838;2023-05-07T15:02:51;15.63;;;2.42;;
70920;SDS011;58572;48.110;19.838;2023-05-07T15:07:45;2.70;;;1.60;;
70920;SDS011;58572;48.110;19.838;2023-05-07T15:10:16;5.72;;;1.60;;
70920;SDS011;58572;48.110;19.838;2023-05-07T15:12:43;4.00;;;1.35;;
70920;SDS011;58572;48.110;19.838;2023-05-07T15:15:10;5.70;;;1.70;;
70920;SDS011;58572;48.110;19.838;2023-05-07T15:17:40;2.67;;;1.30;;
70920;SDS011;58572;48.110;19.838;2023-05-07T15:20:08;2.88;;;1.50;;
70920;SDS011;58572;48.110;19.838;2023-05-07T15:22:35;3.28;;;1.42;;
70920;SDS011;58572;48.110;19.838;2023-05-07T15:25:03;3.55;;;1.33;;
70920;SDS011;58572;48.110;19.838;2023-05-07T15:27:32;3.92;;;1.40;;
70920;SDS011;58572;48.110;19.838;2023-05-07T15:30:00;4.10;;;1.42;;
70920;SDS011;58572;48.110;19.838;2023-05-07T15:32:27;4.53;;;1.90;;
70920;SDS011;58572;48.110;19.838;2023-05-07T15:34:55;2.88;;;1.42;;
70920;SDS011;58572;48.110;19.838;2023-05-07T15:37:22;5.03;;;1.50;;
70920;SDS011;58572;48.110;19.838;2023-05-07T15:39:49;5.47;;;3.35;;
70920;SDS011;58572;48.110;19.838;2023-05-07T15:42:16;5.90;;;2.85;;
70920;SDS011;58572;48.110;19.838;2023-05-07T15:44:45;8.00;;;3.20;;
70920;SDS011;58572;48.110;19.838;2023-05-07T15:47:15;6.40;;;2.90;;